sensor_id;sensor_type;location;lat;lon;timestamp;temperature;humidity
15922;DHT22;8060;50.948;3.146;2022-11-21T07:29:24;5.00;99.90
15922;DHT22;8060;50.948;3.146;2022-11-21T07:31:55;5.00;99.90
15922;DHT22;8060;50.948;3.146;2022-11-21T07:34:23;5.10;99.90
15922;DHT22;8060;50.948;3.146;2022-11-21T07:36:51;5.10;99.90
15922;DHT22;8060;50.948;3.146;2022-11-21T07:39:19;5.20;99.90
15922;DHT22;8060;50.948;3.146;2022-11-21T07:41:47;5.20;99.90
15922;DHT22;8060;50.948;3.146;2022-11-21T07:44:15;5.30;99.90
15922;DHT22;8060;50.948;3.146;2022-11-21T07:46:45;5.30;99.90
15922;DHT22;8060;50.948;3.146;2022-11-21T07:49:13;5.30;99.90
15922;DHT22;8060;50.948;3.146;2022-11-21T07:51:41;5.40;99.90
15922;DHT22;8060;50.948;3.146;2022-11-21T07:54:09;5.40;99.90
15922;DHT22;8060;50.948;3.146;2022-11-21T07:56:37;5.50;99.90
15922;DHT22;8060;50.948;3.146;2022-11-21T07:59:05;5.50;99.90
15922;DHT22;8060;50.948;3.146;2022-11-21T08:01:33;5.50;99.90
15922;DHT22;8060;50.948;3.146;2022-11-21T08:04:02;5.60;99.90
15922;DHT22;8060;50.948;3.146;2022-11-21T08:06:30;5.60;99.90
15922;DHT22;8060;50.948;3.146;2022-11-21T08:08:58;5.70;99.90
15922;DHT22;8060;50.948;3.146;2022-11-21T08:11:27;5.70;99.90
15922;DHT22;8060;50.948;3.146;2022-11-21T08:13:57;5.80;99.90
15922;DHT22;8060;50.948;3.146;2022-11-21T08:16:26;5.80;99.90
15922;DHT22;8060;50.948;3.146;2022-11-21T08:18:56;5.90;99.90
15922;DHT22;8060;50.948;3.146;2022-11-21T08:21:25;5.90;99.90
15922;DHT22;8060;50.948;3.146;2022-11-21T08:23:53;6.00;99.90
15922;DHT22;8060;50.948;3.146;2022-11-21T08:26:21;6.00;99.90
15922;DHT22;8060;50.948;3.146;2022-11-21T08:28:49;6.10;99.90
15922;DHT22;8060;50.948;3.146;2022-11-21T08:31:25;6.10;99.90
15922;DHT22;8060;50.948;3.146;2022-11-21T08:33:55;6.10;99.90
15922;DHT22;8060;50.948;3.146;2022-11-21T08:36:24;6.20;99.90
15922;DHT22;8060;50.948;3.146;2022-11-21T08:38:52;6.20;99.90
15922;DHT22;8060;50.948;3.146;2022-11-21T08:41:20;6.20;99.90
15922;DHT22;8060;50.948;3.146;2022-11-21T08:44:06;6.20;99.90
15922;DHT22;8060;50.948;3.146;2022-11-21T08:46:40;6.30;99.90
15922;DHT22;8060;50.948;3.146;2022-11-21T08:49:08;6.40;99.90
15922;DHT22;8060;50.948;3.146;2022-11-21T08:51:38;6.40;99.90
15922;DHT22;8060;50.948;3.146;2022-11-21T08:54:06;6.50;99.90
15922;DHT22;8060;50.948;3.146;2022-11-21T08:56:35;6.50;99.90
15922;DHT22;8060;50.948;3.146;2022-11-21T08:59:03;6.50;99.90
15922;DHT22;8060;50.948;3.146;2022-11-21T09:01:31;6.50;99.90
15922;DHT22;8060;50.948;3.146;2022-11-21T09:03:59;6.60;99.90
15922;DHT22;8060;50.948;3.146;2022-11-21T09:06:27;6.60;99.90
15922;DHT22;8060;50.948;3.146;2022-11-21T09:08:56;6.60;99.90
15922;DHT22;8060;50.948;3.146;2022-11-21T09:11:25;6.60;99.90
15922;DHT22;8060;50.948;3.146;2022-11-21T09:13:53;6.60;99.90
15922;DHT22;8060;50.948;3.146;2022-11-21T09:16:39;6.70;99.90
15922;DHT22;8060;50.948;3.146;2022-11-21T09:19:28;6.70;99.90
15922;DHT22;8060;50.948;3.146;2022-11-21T09:21:57;6.80;99.90
15922;DHT22;8060;50.948;3.146;2022-11-21T09:24:26;6.80;99.90
15922;DHT22;8060;50.948;3.146;2022-11-21T09:26:54;6.80;99.90
15922;DHT22;8060;50.948;3.146;2022-11-21T09:29:23;6.80;99.90
15922;DHT22;8060;50.948;3.146;2022-11-21T09:31:51;6.90;99.90
15922;DHT22;8060;50.948;3.146;2022-11-21T09:34:19;6.90;99.90
15922;DHT22;8060;50.948;3.146;2022-11-21T09:36:47;6.90;99.90
15922;DHT22;8060;50.948;3.146;2022-11-21T09:39:15;6.90;99.90
15922;DHT22;8060;50.948;3.146;2022-11-21T09:41:50;6.90;99.90
15922;DHT22;8060;50.948;3.146;2022-11-21T09:47:24;7.00;99.90
15922;DHT22;8060;50.948;3.146;2022-11-21T09:49:58;6.90;99.90
15922;DHT22;8060;50.948;3.146;2022-11-21T09:52:31;7.00;99.90
15922;DHT22;8060;50.948;3.146;2022-11-21T09:55:05;7.00;99.90
15922;DHT22;8060;50.948;3.146;2022-11-21T09:57:35;7.00;99.90
15922;DHT22;8060;50.948;3.146;2022-11-21T10:00:13;7.10;99.90
15922;DHT22;8060;50.948;3.146;2022-11-21T10:02:41;7.10;99.90
15922;DHT22;8060;50.948;3.146;2022-11-21T10:05:12;7.20;99.90
15922;DHT22;8060;50.948;3.146;2022-11-21T10:07:41;7.20;99.90
15922;DHT22;8060;50.948;3.146;2022-11-21T10:10:33;7.30;99.90
15922;DHT22;8060;50.948;3.146;2022-11-21T10:13:14;7.30;99.90
15922;DHT22;8060;50.948;3.146;2022-11-21T10:15:55;7.40;99.90
15922;DHT22;8060;50.948;3.146;2022-11-21T10:19:00;7.40;99.90
15922;DHT22;8060;50.948;3.146;2022-11-21T10:24:44;7.40;99.90
15922;DHT22;8060;50.948;3.146;2022-11-21T10:27:18;7.40;99.90
15922;DHT22;8060;50.948;3.146;2022-11-21T10:29:53;7.40;99.90
15922;DHT22;8060;50.948;3.146;2022-11-21T10:32:26;7.50;99.90
15922;DHT22;8060;50.948;3.146;2022-11-21T10:34:58;7.50;99.90
15922;DHT22;8060;50.948;3.146;2022-11-21T10:37:34;7.50;99.90
15922;DHT22;8060;50.948;3.146;2022-11-21T10:40:12;7.40;99.90
15922;DHT22;8060;50.948;3.146;2022-11-21T10:42:46;7.40;99.90
15922;DHT22;8060;50.948;3.146;2022-11-21T10:45:18;7.40;99.90
15922;DHT22;8060;50.948;3.146;2022-11-21T10:47:47;7.50;99.90
15922;DHT22;8060;50.948;3.146;2022-11-21T10:50:31;7.50;99.90
15922;DHT22;8060;50.948;3.146;2022-11-21T10:53:07;7.50;99.90
15922;DHT22;8060;50.948;3.146;2022-11-21T10:56:00;7.60;99.90
15922;DHT22;8060;50.948;3.146;2022-11-21T10:58:43;7.60;99.90
15922;DHT22;8060;50.948;3.146;2022-11-21T11:01:21;7.60;99.90
15922;DHT22;8060;50.948;3.146;2022-11-21T11:04:15;7.60;99.90
15922;DHT22;8060;50.948;3.146;2022-11-21T11:06:54;7.60;99.90
15922;DHT22;8060;50.948;3.146;2022-11-21T11:09:30;7.60;99.90
15922;DHT22;8060;50.948;3.146;2022-11-21T11:12:21;7.60;99.90
15922;DHT22;8060;50.948;3.146;2022-11-21T11:14:51;7.60;99.90
15922;DHT22;8060;50.948;3.146;2022-11-21T11:17:30;7.60;99.90
15922;DHT22;8060;50.948;3.146;2022-11-21T11:20:00;7.70;99.90
15922;DHT22;8060;50.948;3.146;2022-11-21T11:22:29;7.70;99.90
15922;DHT22;8060;50.948;3.146;2022-11-21T11:24:58;7.70;99.90
15922;DHT22;8060;50.948;3.146;2022-11-21T11:27:27;7.80;99.90
15922;DHT22;8060;50.948;3.146;2022-11-21T11:29:56;7.80;99.90
15922;DHT22;8060;50.948;3.146;2022-11-21T11:32:38;7.80;99.90
15922;DHT22;8060;50.948;3.146;2022-11-21T11:35:19;7.90;99.90
15922;DHT22;8060;50.948;3.146;2022-11-21T11:37:57;7.90;99.90
15922;DHT22;8060;50.948;3.146;2022-11-21T11:40:30;7.90;99.90
15922;DHT22;8060;50.948;3.146;2022-11-21T11:43:11;7.90;99.90
15922;DHT22;8060;50.948;3.146;2022-11-21T11:46:11;7.90;99.90
15922;DHT22;8060;50.948;3.146;2022-11-21T11:49:02;7.90;99.90
15922;DHT22;8060;50.948;3.146;2022-11-21T11:51:54;8.00;99.90
15922;DHT22;8060;50.948;3.146;2022-11-21T11:54:27;8.00;99.90
15922;DHT22;8060;50.948;3.146;2022-11-21T11:56:56;8.00;99.90
15922;DHT22;8060;50.948;3.146;2022-11-21T11:59:28;8.00;99.90
15922;DHT22;8060;50.948;3.146;2022-11-21T12:02:00;8.10;99.90
15922;DHT22;8060;50.948;3.146;2022-11-21T12:04:43;8.10;99.90
15922;DHT22;8060;50.948;3.146;2022-11-21T12:07:17;8.20;99.90
15922;DHT22;8060;50.948;3.146;2022-11-21T12:10:14;8.20;99.90
15922;DHT22;8060;50.948;3.146;2022-11-21T12:12:47;8.20;99.90
15922;DHT22;8060;50.948;3.146;2022-11-21T12:15:21;8.20;99.90
15922;DHT22;8060;50.948;3.146;2022-11-21T12:18:13;8.30;99.90
15922;DHT22;8060;50.948;3.146;2022-11-21T12:20:50;8.30;99.90
15922;DHT22;8060;50.948;3.146;2022-11-21T12:23:20;8.40;99.90
15922;DHT22;8060;50.948;3.146;2022-11-21T12:25:54;8.40;99.90
15922;DHT22;8060;50.948;3.146;2022-11-21T12:28:33;8.50;99.90
15922;DHT22;8060;50.948;3.146;2022-11-21T12:31:08;8.50;99.90
15922;DHT22;8060;50.948;3.146;2022-11-21T12:33:50;8.50;99.90
15922;DHT22;8060;50.948;3.146;2022-11-21T12:36:27;8.50;99.90
15922;DHT22;8060;50.948;3.146;2022-11-21T12:42:13;8.60;99.90
15922;DHT22;8060;50.948;3.146;2022-11-21T12:45:14;8.60;99.90
15922;DHT22;8060;50.948;3.146;2022-11-21T12:48:02;8.70;99.90
15922;DHT22;8060;50.948;3.146;2022-11-21T12:50:58;8.80;99.90
15922;DHT22;8060;50.948;3.146;2022-11-21T12:53:53;8.90;99.90
15922;DHT22;8060;50.948;3.146;2022-11-21T12:56:45;8.90;99.90
15922;DHT22;8060;50.948;3.146;2022-11-21T12:59:16;8.90;99.90
15922;DHT22;8060;50.948;3.146;2022-11-21T13:01:51;8.90;99.90
15922;DHT22;8060;50.948;3.146;2022-11-21T13:04:27;9.00;99.90
15922;DHT22;8060;50.948;3.146;2022-11-21T13:06:56;9.10;99.90
15922;DHT22;8060;50.948;3.146;2022-11-21T13:09:31;9.10;99.90
15922;DHT22;8060;50.948;3.146;2022-11-21T13:12:04;9.00;99.90
15922;DHT22;8060;50.948;3.146;2022-11-21T13:14:43;9.00;99.90
15922;DHT22;8060;50.948;3.146;2022-11-21T13:17:28;9.00;99.90
15922;DHT22;8060;50.948;3.146;2022-11-21T13:20:05;9.00;99.90
15922;DHT22;8060;50.948;3.146;2022-11-21T13:22:54;9.00;99.90
15922;DHT22;8060;50.948;3.146;2022-11-21T13:25:41;9.00;99.90
15922;DHT22;8060;50.948;3.146;2022-11-21T13:28:35;9.00;99.90
15922;DHT22;8060;50.948;3.146;2022-11-21T13:31:28;9.00;99.90
15922;DHT22;8060;50.948;3.146;2022-11-21T13:33:57;9.10;99.90
15922;DHT22;8060;50.948;3.146;2022-11-21T13:36:35;9.10;99.90
15922;DHT22;8060;50.948;3.146;2022-11-21T13:39:33;9.20;99.90
